createdAt,value
2016-11-15T13:57:22.452Z,23.74
2016-11-15T13:57:39.147Z,24.02
2016-11-15T13:57:55.867Z,23.92
2016-11-15T13:58:12.595Z,23.7
2016-11-15T13:58:29.391Z,23.78
2016-11-15T13:58:46.107Z,23.72
2016-11-15T13:59:02.837Z,24.01
2016-11-15T13:59:19.550Z,24.1
2016-11-15T13:59:36.297Z,24.19
2016-11-15T13:59:53.000Z,24.22
2016-11-15T14:00:09.724Z,24.16
2016-11-15T14:00:26.409Z,24.01
2016-11-15T14:00:43.130Z,24.32
2016-11-15T14:00:59.848Z,24.47
2016-11-15T14:01:16.572Z,24.4
2016-11-15T14:01:33.294Z,24.22
2016-11-15T14:01:50.027Z,24.35
2016-11-15T14:02:06.737Z,23.61
2016-11-15T14:02:23.448Z,23.75
2016-11-15T14:02:40.171Z,23.6
2016-11-15T14:02:56.908Z,23.38
2016-11-15T14:03:13.608Z,23.31
2016-11-15T14:03:30.318Z,23.48
2016-11-15T14:03:47.021Z,23.55
2016-11-15T14:04:04.285Z,23.87
2016-11-15T14:04:21.007Z,24.01
2016-11-15T14:04:37.734Z,24.07
2016-11-15T14:04:54.511Z,24.05
2016-11-15T14:05:11.215Z,24.01
2016-11-15T14:05:27.952Z,23.82
2016-11-15T14:05:44.670Z,23.9
2016-11-15T14:06:01.367Z,23.92
2016-11-15T14:06:18.124Z,24.01
2016-11-15T14:06:34.878Z,24.2
2016-11-15T14:06:51.608Z,24.32
2016-11-15T14:07:08.313Z,24.42
2016-11-15T14:07:25.022Z,24.4
2016-11-15T14:07:41.747Z,24.37
2016-11-15T14:07:58.475Z,24.12
2016-11-15T14:08:15.176Z,24.12
2016-11-15T14:08:31.876Z,24.16
2016-11-15T14:08:48.585Z,24.35
2016-11-15T14:09:05.306Z,24.37
2016-11-15T14:09:22.044Z,24.47
2016-11-15T14:09:38.742Z,24.52
2016-11-15T14:09:55.446Z,24.6
2016-11-15T14:10:12.165Z,24.71
2016-11-15T14:10:28.895Z,24.82
2016-11-15T14:10:45.618Z,24.8
2016-11-15T14:11:02.352Z,24.97
2016-11-15T14:11:19.175Z,24.17
2016-11-15T14:11:35.915Z,24.2
2016-11-15T14:11:52.642Z,24.34
2016-11-15T14:12:09.872Z,24.37
2016-11-15T14:12:26.590Z,24.42
2016-11-15T14:12:43.294Z,24.57
2016-11-15T14:13:00.005Z,24.66
2016-11-15T14:13:16.752Z,24.69
2016-11-15T14:13:33.447Z,24.75
2016-11-15T14:13:50.182Z,24.78
2016-11-15T14:14:06.919Z,24.83
2016-11-15T14:14:23.630Z,24.95
2016-11-15T14:14:40.357Z,24.59
2016-11-15T14:14:57.065Z,24.47
2016-11-15T14:15:13.784Z,24.57
2016-11-15T14:15:30.500Z,24.59
2016-11-15T14:15:47.224Z,24.78
2016-11-15T14:16:03.944Z,24.82
2016-11-15T14:16:20.649Z,24.9
2016-11-15T14:16:37.385Z,24.9
2016-11-15T14:16:54.098Z,24.82
2016-11-15T14:17:10.813Z,24.47
2016-11-15T14:17:27.500Z,24.45
2016-11-15T14:17:44.244Z,24.45
2016-11-15T14:18:00.950Z,24.34
2016-11-15T14:18:17.651Z,24.11
2016-11-15T14:18:34.377Z,24.02
2016-11-15T14:18:51.102Z,24.1
2016-11-15T14:19:07.823Z,24.01
2016-11-15T14:19:24.551Z,23.7
2016-11-15T14:19:41.764Z,23.67
2016-11-15T14:19:58.502Z,23.79
2016-11-15T14:20:15.226Z,23.58
2016-11-15T14:20:31.941Z,23.22
2016-11-15T14:20:48.683Z,22.97
2016-11-15T14:21:05.393Z,23.04
2016-11-15T14:21:22.125Z,23.07
2016-11-15T14:21:38.870Z,23.29
2016-11-15T14:21:55.595Z,23.31
2016-11-15T14:22:12.323Z,23.35
2016-11-15T14:22:29.060Z,23.53
2016-11-15T14:22:45.810Z,23.43
2016-11-15T14:23:02.529Z,23.33
2016-11-15T14:23:19.262Z,23.12
2016-11-15T14:23:35.991Z,23.18
2016-11-15T14:23:52.720Z,22.94
2016-11-15T14:24:09.456Z,23.02
2016-11-15T14:24:26.168Z,22.89
2016-11-15T14:24:43.479Z,22.83
2016-11-15T14:25:00.203Z,22.6
2016-11-15T14:25:16.911Z,22.89
2016-11-15T14:25:33.645Z,22.93
2016-11-15T14:25:50.366Z,22.94
2016-11-15T14:26:07.078Z,22.47
2016-11-15T14:26:23.902Z,22.67
2016-11-15T14:26:40.670Z,22.54
2016-11-15T14:26:57.905Z,22.79
2016-11-15T14:27:14.625Z,23.04
2016-11-15T14:27:31.322Z,22.89
2016-11-15T14:27:48.046Z,22.68
2016-11-15T14:28:04.755Z,22.75
2016-11-15T14:28:21.483Z,22.57
2016-11-15T14:28:38.262Z,22.59
2016-11-15T14:28:54.985Z,22.46
2016-11-15T14:29:11.695Z,22.59
2016-11-15T14:29:28.429Z,22.6
2016-11-15T14:29:45.162Z,22.26
2016-11-15T14:30:01.885Z,22.12
2016-11-15T14:30:18.622Z,22.07
2016-11-15T14:30:35.345Z,22.28
2016-11-15T14:30:52.060Z,22.34
2016-11-15T14:31:08.757Z,22.54
2016-11-15T14:31:25.486Z,22.16
2016-11-15T14:31:42.206Z,22.28
2016-11-15T14:31:58.940Z,22.3
2016-11-15T14:32:15.682Z,22.08
2016-11-15T14:32:32.417Z,22.37
2016-11-15T14:32:49.139Z,22.54
2016-11-15T14:33:05.868Z,22.72
2016-11-15T14:33:22.623Z,22.92
2016-11-15T14:33:39.329Z,22.94
2016-11-15T14:33:56.062Z,23.07
2016-11-15T14:34:12.792Z,23.12
2016-11-15T14:34:29.478Z,22.93
2016-11-15T14:34:46.334Z,23.18
2016-11-15T14:35:03.065Z,23.31
2016-11-15T14:35:19.786Z,23.31
2016-11-15T14:35:36.508Z,23.65
2016-11-15T14:35:53.221Z,23.86
2016-11-15T14:36:09.934Z,24.01
2016-11-15T14:36:27.399Z,23.74
2016-11-15T14:36:44.124Z,24.08
2016-11-15T14:37:00.848Z,24.29
2016-11-15T14:37:17.585Z,24.71
2016-11-15T14:37:34.310Z,24.48
2016-11-15T14:37:51.081Z,24.5
2016-11-15T14:38:07.773Z,24.57
2016-11-15T14:38:24.482Z,24.8
2016-11-15T14:38:41.209Z,24.94
2016-11-15T14:38:57.932Z,24.95
2016-11-15T14:39:14.664Z,24.62
2016-11-15T14:39:31.393Z,24.98
2016-11-15T14:39:48.100Z,24.69
2016-11-15T14:40:04.824Z,24.75
2016-11-15T14:40:21.580Z,24.59
2016-11-15T14:40:38.305Z,24.95
2016-11-15T14:40:55.048Z,25.2
2016-11-15T14:41:11.757Z,25.35
2016-11-15T14:41:28.585Z,25.35
2016-11-15T14:41:45.300Z,25.37
2016-11-15T14:42:02.018Z,25.46
2016-11-15T14:42:19.247Z,25.41
2016-11-15T14:42:35.959Z,25.47
2016-11-15T14:42:52.726Z,25.6
2016-11-15T14:43:09.436Z,25.49
2016-11-15T14:43:26.134Z,25.65
2016-11-15T14:43:42.847Z,25.78
2016-11-15T14:43:59.567Z,25.3
2016-11-15T14:44:16.291Z,25.64
2016-11-15T14:44:33.004Z,25.2
2016-11-15T14:44:49.723Z,25.41
2016-11-15T14:45:06.457Z,25.19
2016-11-15T14:45:23.206Z,25.25
2016-11-15T14:45:39.907Z,25.37
2016-11-15T14:45:56.614Z,25.56
2016-11-15T14:46:13.334Z,25.56
2016-11-15T14:46:30.046Z,25.38
2016-11-15T14:46:46.771Z,25.34
2016-11-15T14:47:03.513Z,25.34
2016-11-15T14:47:20.240Z,25.3
2016-11-15T14:47:36.975Z,24.94
2016-11-15T14:47:53.695Z,24.71
2016-11-15T14:48:10.427Z,24.59
2016-11-15T14:48:27.171Z,24.97
2016-11-15T14:48:43.887Z,25.27
2016-11-15T14:49:00.613Z,25.56
2016-11-15T14:49:17.341Z,25.23
2016-11-15T14:49:34.067Z,25.19
2016-11-15T14:49:50.789Z,25.1
2016-11-15T14:50:07.528Z,24.93
2016-11-15T14:50:24.243Z,25.49
2016-11-15T14:50:40.951Z,25.1
2016-11-15T14:50:57.715Z,25.57
2016-11-15T14:51:14.415Z,25.57
2016-11-15T14:51:31.298Z,25.86
2016-11-15T14:51:48.015Z,26.27
2016-11-15T14:52:04.756Z,26.28
2016-11-15T14:52:21.485Z,26.6
2016-11-15T14:52:38.224Z,26.68
2016-11-15T14:52:55.004Z,26.8
2016-11-15T14:53:11.731Z,26.04
2016-11-15T14:53:28.979Z,25.84
2016-11-15T14:53:45.694Z,26.18
2016-11-15T14:54:02.407Z,26.42
2016-11-15T14:54:19.126Z,26.72
2016-11-15T14:54:36.354Z,26.69
2016-11-15T14:54:53.064Z,26.75
2016-11-15T14:55:09.806Z,26.72
2016-11-15T14:55:26.540Z,27.12
2016-11-15T14:55:43.270Z,27.29
2016-11-15T14:56:00.008Z,27.44
2016-11-15T14:56:16.763Z,27.42
2016-11-15T14:56:33.629Z,27.76
2016-11-15T14:56:50.374Z,27.79
2016-11-15T14:57:07.118Z,27.72
2016-11-15T14:57:23.872Z,27.61
2016-11-15T14:57:40.595Z,27.61
2016-11-15T14:57:57.311Z,27.51
2016-11-15T14:58:14.093Z,26.99
2016-11-15T14:58:30.835Z,27.04
2016-11-15T14:58:47.521Z,27.13
2016-11-15T14:59:04.256Z,26.8
2016-11-15T14:59:20.983Z,26.84
2016-11-15T14:59:38.325Z,26.83
2016-11-15T14:59:55.081Z,26.53
2016-11-15T15:00:11.802Z,26.01
2016-11-15T15:00:28.576Z,26.27
2016-11-15T15:00:45.354Z,25.62
2016-11-15T15:01:02.120Z,25.55
2016-11-15T15:01:18.850Z,25.22
2016-11-15T15:01:35.551Z,25.55
2016-11-15T15:01:52.270Z,25.83
2016-11-15T15:02:08.986Z,25.77
2016-11-15T15:02:25.710Z,25.9
2016-11-15T15:02:42.437Z,26.07
2016-11-15T15:02:59.144Z,26.05
2016-11-15T15:03:15.942Z,26.2
2016-11-15T15:03:32.681Z,25.97
2016-11-15T15:03:49.406Z,26.35
2016-11-15T15:04:06.146Z,26.27
2016-11-15T15:04:22.872Z,25.82
2016-11-15T15:04:39.658Z,25.46
2016-11-15T15:04:56.412Z,25.9
2016-11-15T15:05:13.171Z,25.55
2016-11-15T15:05:29.948Z,25.16
2016-11-15T15:05:46.734Z,25.27
2016-11-15T15:06:03.495Z,25.35
2016-11-15T15:06:20.224Z,25.25
2016-11-15T15:06:36.982Z,24.97
2016-11-15T15:06:53.799Z,25.35
2016-11-15T15:07:10.550Z,25.47
2016-11-15T15:07:27.265Z,25.67
2016-11-15T15:07:44.001Z,25.34
2016-11-15T15:08:00.807Z,25.22
2016-11-15T15:08:17.551Z,25.35
2016-11-15T15:08:34.278Z,25.46
2016-11-15T15:08:51.003Z,25.25
2016-11-15T15:09:07.771Z,24.69
2016-11-15T15:09:24.514Z,24.97
2016-11-15T15:09:41.245Z,24.8
2016-11-15T15:09:58.502Z,25
2016-11-15T15:10:15.246Z,25.02
2016-11-15T15:10:31.975Z,25.1
2016-11-15T15:10:48.691Z,25.02
2016-11-15T15:11:05.464Z,24.23
2016-11-15T15:11:22.191Z,24.57
2016-11-15T15:11:39.028Z,24.34
2016-11-15T15:11:56.343Z,24.37
2016-11-15T15:12:13.075Z,24.42
2016-11-15T15:12:29.830Z,24.59
2016-11-15T15:12:46.573Z,24.59
2016-11-15T15:13:03.311Z,24.69
2016-11-15T15:13:20.041Z,24.53
2016-11-15T15:13:36.790Z,24.27
2016-11-15T15:13:53.490Z,24.05
2016-11-15T15:14:10.222Z,24.08
2016-11-15T15:14:26.949Z,23.97
2016-11-15T15:14:43.666Z,24.01
2016-11-15T15:15:00.407Z,23.45
2016-11-15T15:15:17.166Z,23.93
2016-11-15T15:15:33.924Z,23.97
2016-11-15T15:15:50.631Z,23.5
2016-11-15T15:16:07.379Z,23.48
2016-11-15T15:16:24.094Z,23.38
2016-11-15T15:16:40.963Z,23.58
2016-11-15T15:16:57.666Z,22.72
2016-11-15T15:17:14.405Z,22.84
2016-11-15T15:17:31.148Z,22.75
2016-11-15T15:17:47.879Z,22.84
2016-11-15T15:18:04.602Z,22.77
2016-11-15T15:18:21.352Z,22.6
2016-11-15T15:18:38.051Z,22.65
2016-11-15T15:18:54.803Z,22.69
2016-11-15T15:19:11.523Z,22.79
2016-11-15T15:19:28.284Z,22.72
2016-11-15T15:19:44.995Z,22.59
2016-11-15T15:20:01.706Z,22.94
2016-11-15T15:20:18.741Z,23
2016-11-15T15:20:35.454Z,22.74
2016-11-15T15:20:52.198Z,22.42
2016-11-15T15:21:08.916Z,22.63
2016-11-15T15:21:25.664Z,22.67
2016-11-15T15:21:42.460Z,22.62
2016-11-15T15:21:59.172Z,22.39
2016-11-15T15:22:15.897Z,22.38
2016-11-15T15:22:32.619Z,22.54
2016-11-15T15:22:49.393Z,22.53
2016-11-15T15:23:06.129Z,22.59
2016-11-15T15:23:22.852Z,22.68
2016-11-15T15:23:39.572Z,22.69
2016-11-15T15:23:56.313Z,22.63
2016-11-15T15:24:13.033Z,22.3
2016-11-15T15:24:29.741Z,22.49
2016-11-15T15:24:46.478Z,22.57
2016-11-15T15:25:03.208Z,22.69
2016-11-15T15:25:19.926Z,22.65
2016-11-15T15:25:36.676Z,22.72
2016-11-15T15:25:53.395Z,22.83
2016-11-15T15:26:10.117Z,22.84
2016-11-15T15:26:26.877Z,22.99
2016-11-15T15:26:43.813Z,22.99
2016-11-15T15:27:00.546Z,23.08
2016-11-15T15:27:17.354Z,23.27
2016-11-15T15:27:34.117Z,23.23
2016-11-15T15:27:50.887Z,23.4
2016-11-15T15:28:07.613Z,23.34
2016-11-15T15:28:24.321Z,23.22
2016-11-15T15:28:41.067Z,23.31
2016-11-15T15:28:57.807Z,23.15
2016-11-15T15:29:14.542Z,23.29
2016-11-15T15:29:31.324Z,23.42
2016-11-15T15:29:48.056Z,23.42
2016-11-15T15:30:04.789Z,22.96
2016-11-15T15:30:22.218Z,22.89
2016-11-15T15:30:38.916Z,22.93
2016-11-15T15:30:55.610Z,23.11
2016-11-15T15:31:12.371Z,23.22
2016-11-15T15:31:29.119Z,23.22
2016-11-15T15:31:45.865Z,22.87
2016-11-15T15:32:02.586Z,22.6
2016-11-15T15:32:19.356Z,22.78
2016-11-15T15:32:36.151Z,22.65
2016-11-15T15:32:52.902Z,22.62
2016-11-15T15:33:09.616Z,22.89
2016-11-15T15:33:26.375Z,22.97
2016-11-15T15:33:43.119Z,23.14
2016-11-15T15:33:59.850Z,23.34
2016-11-15T15:34:16.565Z,23.42
2016-11-15T15:34:33.283Z,23.46
2016-11-15T15:34:50.004Z,23.4
2016-11-15T15:35:07.231Z,23.27
2016-11-15T15:35:23.934Z,22.99
2016-11-15T15:35:40.636Z,22.75
2016-11-15T15:35:57.376Z,23
2016-11-15T15:36:14.115Z,23.22
2016-11-15T15:36:30.868Z,23.33
2016-11-15T15:36:47.634Z,23.4
2016-11-15T15:37:04.382Z,23.55
2016-11-15T15:37:21.118Z,23.74
2016-11-15T15:37:37.861Z,23.52
2016-11-15T15:37:54.610Z,23
2016-11-15T15:38:11.306Z,23.31
2016-11-15T15:38:28.061Z,23.43
2016-11-15T15:38:44.788Z,22.99
2016-11-15T15:39:01.502Z,22.99
2016-11-15T15:39:18.261Z,23.05
2016-11-15T15:39:34.982Z,23.08
2016-11-15T15:39:51.736Z,23.12
2016-11-15T15:40:08.476Z,22.92
2016-11-15T15:40:25.209Z,22.83
2016-11-15T15:40:41.942Z,23
2016-11-15T15:40:58.672Z,22.97
2016-11-15T15:41:15.396Z,23.09
2016-11-15T15:41:32.144Z,23.05
2016-11-15T15:41:48.981Z,23.23
2016-11-15T15:42:05.711Z,23.42
2016-11-15T15:42:22.426Z,23.31
2016-11-15T15:42:39.145Z,23.42
2016-11-15T15:42:56.397Z,23.5
2016-11-15T15:43:13.142Z,23.7
2016-11-15T15:43:29.850Z,23.89
2016-11-15T15:43:46.600Z,23.64
2016-11-15T15:44:03.313Z,23.63
2016-11-15T15:44:20.043Z,23.8
2016-11-15T15:44:36.780Z,23.87
2016-11-15T15:44:53.550Z,23.97
2016-11-15T15:45:10.262Z,24.2
2016-11-15T15:45:26.990Z,24.08
2016-11-15T15:45:43.718Z,24.3
2016-11-15T15:46:00.449Z,24.53
2016-11-15T15:46:17.199Z,24.82
2016-11-15T15:46:33.915Z,24.86
2016-11-15T15:46:50.626Z,24.78
2016-11-15T15:47:07.352Z,24.86
2016-11-15T15:47:24.076Z,24.73
2016-11-15T15:47:40.812Z,24.78
2016-11-15T15:47:58.076Z,25.05
2016-11-15T15:48:14.811Z,25.04
2016-11-15T15:48:31.525Z,25.22
2016-11-15T15:48:48.251Z,25.31
2016-11-15T15:49:04.962Z,25.17
2016-11-15T15:49:22.536Z,25.09
2016-11-15T15:49:39.256Z,25.49
2016-11-15T15:49:55.968Z,25.55
2016-11-15T15:50:12.694Z,25.75
2016-11-15T15:50:29.424Z,25.94
2016-11-15T15:50:46.120Z,26.04
2016-11-15T15:51:02.842Z,26.15
2016-11-15T15:51:19.601Z,26.24
2016-11-15T15:51:36.313Z,26.12
2016-11-15T15:51:53.160Z,26.4
2016-11-15T15:52:09.886Z,26.43
2016-11-15T15:52:26.601Z,26.6
2016-11-15T15:52:43.333Z,26.39
2016-11-15T15:53:00.070Z,26.28
2016-11-15T15:53:16.774Z,25.71
2016-11-15T15:53:33.986Z,26.01
2016-11-15T15:53:50.713Z,25.93
2016-11-15T15:54:07.427Z,26.05
2016-11-15T15:54:24.158Z,25.87
2016-11-15T15:54:40.889Z,26.01
2016-11-15T15:54:57.624Z,25.84
2016-11-15T15:55:14.372Z,25.94
2016-11-15T15:55:31.110Z,26.05
2016-11-15T15:55:47.836Z,26.3
2016-11-15T15:56:04.559Z,25.64
2016-11-15T15:56:21.303Z,25.59
2016-11-15T15:56:38.014Z,25.86
2016-11-15T15:56:54.825Z,25.89
2016-11-15T15:57:11.563Z,25.62
2016-11-15T15:57:28.315Z,25.71
2016-11-15T15:57:45.055Z,25.84
2016-11-15T15:58:01.789Z,25.77
2016-11-15T15:58:18.539Z,25.93
2016-11-15T15:58:35.248Z,25.82
2016-11-15T15:58:52.030Z,25.86
2016-11-15T15:59:08.746Z,25.87
2016-11-15T15:59:25.454Z,25.57
2016-11-15T15:59:42.187Z,25.64
2016-11-15T15:59:58.916Z,25.86
2016-11-15T16:00:15.655Z,25.7
2016-11-15T16:00:32.398Z,25.67
2016-11-15T16:00:49.668Z,25.37
2016-11-15T16:01:06.401Z,25.32
2016-11-15T16:01:23.145Z,25.49
2016-11-15T16:01:39.887Z,25.35
2016-11-15T16:01:56.597Z,25.47
2016-11-15T16:02:13.303Z,25.46
2016-11-15T16:02:30.013Z,25.15
2016-11-15T16:02:46.718Z,24.95
2016-11-15T16:03:03.448Z,24.52
2016-11-15T16:03:20.165Z,24.83
2016-11-15T16:03:36.905Z,24.76
2016-11-15T16:03:53.658Z,24.83
2016-11-15T16:04:10.918Z,24.76
2016-11-15T16:04:27.626Z,24.44
2016-11-15T16:04:44.349Z,24.63
2016-11-15T16:05:01.084Z,24.27
2016-11-15T16:05:17.803Z,24.32
2016-11-15T16:05:34.579Z,24.37
2016-11-15T16:05:51.290Z,23.79
2016-11-15T16:06:08.018Z,23.8
2016-11-15T16:06:24.783Z,23.63
2016-11-15T16:06:41.509Z,23.7
2016-11-15T16:06:58.213Z,23.5
2016-11-15T16:07:14.967Z,23.63
2016-11-15T16:07:31.693Z,23.4
2016-11-15T16:07:48.435Z,23.35
2016-11-15T16:08:05.146Z,23.48
2016-11-15T16:08:21.872Z,23.52
2016-11-15T16:08:38.591Z,23.56
2016-11-15T16:08:55.324Z,23.29
2016-11-15T16:09:12.069Z,23.55
2016-11-15T16:09:28.801Z,23.35
2016-11-15T16:09:45.525Z,23.72
2016-11-15T16:10:02.291Z,23.8
2016-11-15T16:10:19.019Z,23.89
2016-11-15T16:10:35.775Z,23.78
2016-11-15T16:10:52.519Z,23.63
2016-11-15T16:11:09.243Z,23.49
2016-11-15T16:11:25.967Z,23.4
2016-11-15T16:11:42.690Z,23.61
2016-11-15T16:11:59.536Z,23.68
2016-11-15T16:12:16.254Z,23.67
2016-11-15T16:12:32.973Z,23.4
2016-11-15T16:12:49.701Z,23.75
2016-11-15T16:13:06.433Z,23.53
2016-11-15T16:13:23.160Z,23.64
2016-11-15T16:13:39.890Z,23.65
2016-11-15T16:13:56.613Z,23.79
2016-11-15T16:14:13.848Z,23.64
2016-11-15T16:14:30.564Z,23.65
2016-11-15T16:14:47.300Z,23.68
2016-11-15T16:15:04.020Z,23.8
2016-11-15T16:15:20.741Z,23.79
2016-11-15T16:15:37.473Z,23.9
2016-11-15T16:15:54.186Z,24
2016-11-15T16:16:10.920Z,24.12
2016-11-15T16:16:27.634Z,24.22
2016-11-15T16:16:44.370Z,24.37
2016-11-15T16:17:01.198Z,24.53
2016-11-15T16:17:17.935Z,24.69
2016-11-15T16:17:34.677Z,24.48
2016-11-15T16:17:51.390Z,24.9
2016-11-15T16:18:08.132Z,24.98
2016-11-15T16:18:24.870Z,25.04
2016-11-15T16:18:41.586Z,24.6
2016-11-15T16:18:58.298Z,24.79
2016-11-15T16:19:15.031Z,24.93
2016-11-15T16:19:31.777Z,25.08
2016-11-15T16:19:48.479Z,25.01
2016-11-15T16:20:05.199Z,25.04
2016-11-15T16:20:21.951Z,25.38
2016-11-15T16:20:38.663Z,25.32
2016-11-15T16:20:55.384Z,25.05
2016-11-15T16:21:12.111Z,24.98
2016-11-15T16:21:28.822Z,24.95
2016-11-15T16:21:45.608Z,24.73
2016-11-15T16:22:02.434Z,24.34
2016-11-15T16:22:19.147Z,24.1
2016-11-15T16:22:35.861Z,24.42
2016-11-15T16:22:52.578Z,24.56
2016-11-15T16:23:09.326Z,24.57
2016-11-15T16:23:26.061Z,24.76
2016-11-15T16:23:42.792Z,24.85
2016-11-15T16:23:59.515Z,25.09
2016-11-15T16:24:16.244Z,24.97
2016-11-15T16:24:32.962Z,25.12
2016-11-15T16:24:49.687Z,24.48
2016-11-15T16:25:06.413Z,24.78
2016-11-15T16:25:23.154Z,24.79
2016-11-15T16:25:39.896Z,24.85
2016-11-15T16:25:56.648Z,25.05
2016-11-15T16:26:13.409Z,25.25
2016-11-15T16:26:30.110Z,25.34
2016-11-15T16:26:46.823Z,25.55
2016-11-15T16:27:03.701Z,25.7
2016-11-15T16:27:20.404Z,25.68
2016-11-15T16:27:37.171Z,25.64
2016-11-15T16:27:53.937Z,25.72
2016-11-15T16:28:10.653Z,25.84
2016-11-15T16:28:27.384Z,25.5
2016-11-15T16:28:44.129Z,25.78
2016-11-15T16:29:00.863Z,25.87
2016-11-15T16:29:17.622Z,26.04
2016-11-15T16:29:34.343Z,25.87
2016-11-15T16:29:51.079Z,26.02
2016-11-15T16:30:07.794Z,26.32
2016-11-15T16:30:25.018Z,26.47
2016-11-15T16:30:41.748Z,26.53
2016-11-15T16:30:58.458Z,26.71
2016-11-15T16:31:15.191Z,26.94
2016-11-15T16:31:31.919Z,27.02
2016-11-15T16:31:48.676Z,26.97
2016-11-15T16:32:05.412Z,27.31
2016-11-15T16:32:22.156Z,27.09
2016-11-15T16:32:38.886Z,26.65
2016-11-15T16:32:55.617Z,26.62
2016-11-15T16:33:12.370Z,27.07
2016-11-15T16:33:29.094Z,26.07
2016-11-15T16:33:45.820Z,26.58
2016-11-15T16:34:02.537Z,26.42
2016-11-15T16:34:19.272Z,26.2
2016-11-15T16:34:36.539Z,26.34
2016-11-15T16:34:53.282Z,26.15
2016-11-15T16:35:10.020Z,26.18
2016-11-15T16:35:26.736Z,26.11
2016-11-15T16:35:43.512Z,26.08
2016-11-15T16:36:00.268Z,25.6
2016-11-15T16:36:16.995Z,25.78
2016-11-15T16:36:33.720Z,25.57
2016-11-15T16:36:50.472Z,25.37
2016-11-15T16:37:07.230Z,25.59
2016-11-15T16:37:23.953Z,25.3
2016-11-15T16:37:40.681Z,25.19
2016-11-15T16:37:57.407Z,25.32
2016-11-15T16:38:14.129Z,25.05
2016-11-15T16:38:30.847Z,25.42
2016-11-15T16:38:47.594Z,25.23
2016-11-15T16:39:04.324Z,25.6
2016-11-15T16:39:21.075Z,25.71
2016-11-15T16:39:37.831Z,25.32
2016-11-15T16:39:54.546Z,25.16
2016-11-15T16:40:11.253Z,25.34
2016-11-15T16:40:27.961Z,25.53
2016-11-15T16:40:44.687Z,25.5
2016-11-15T16:41:01.404Z,25.3
2016-11-15T16:41:18.111Z,25.08
2016-11-15T16:41:34.855Z,24.9
2016-11-15T16:41:51.559Z,24.75
2016-11-15T16:42:08.397Z,24.75
2016-11-15T16:42:25.642Z,25.08
2016-11-15T16:42:42.381Z,25.08
2016-11-15T16:42:59.101Z,24.88
2016-11-15T16:43:15.848Z,25.16
2016-11-15T16:43:32.573Z,25.27
2016-11-15T16:43:49.325Z,24.86
2016-11-15T16:44:06.052Z,25.15
2016-11-15T16:44:22.778Z,25.25
2016-11-15T16:44:39.502Z,25.19
2016-11-15T16:44:56.251Z,25.23
2016-11-15T16:45:12.996Z,24.9
2016-11-15T16:45:29.691Z,24.88
2016-11-15T16:45:46.421Z,24.98
2016-11-15T16:46:03.160Z,24.83
2016-11-15T16:46:20.391Z,24.94
2016-11-15T16:46:37.106Z,24.95
2016-11-15T16:46:53.827Z,25.09
2016-11-15T16:47:10.556Z,25.08
2016-11-15T16:47:27.263Z,25.35
2016-11-15T16:47:43.999Z,25.35
2016-11-15T16:48:00.725Z,25.19
2016-11-15T16:48:17.439Z,24.94
2016-11-15T16:48:34.154Z,25.12
2016-11-15T16:48:50.878Z,24.85
2016-11-15T16:49:07.611Z,25.08
2016-11-15T16:49:24.341Z,25.05
2016-11-15T16:49:41.060Z,25.05
2016-11-15T16:49:57.779Z,25.08
2016-11-15T16:50:14.499Z,25.31
2016-11-15T16:50:31.211Z,25.31
2016-11-15T16:50:47.935Z,25.27
2016-11-15T16:51:04.654Z,25.2
2016-11-15T16:51:21.345Z,25.12
2016-11-15T16:51:38.097Z,25.37
2016-11-15T16:51:54.819Z,25.28
2016-11-15T16:52:11.636Z,25.23
2016-11-15T16:52:28.922Z,25.45
2016-11-15T16:52:45.669Z,25.52
2016-11-15T16:53:02.424Z,25.53
2016-11-15T16:53:19.162Z,25.79
2016-11-15T16:53:35.886Z,25.65
2016-11-15T16:53:52.655Z,25.57
2016-11-15T16:54:09.379Z,25.41
2016-11-15T16:54:26.105Z,25.4
2016-11-15T16:54:42.826Z,25.28
2016-11-15T16:54:59.635Z,25.5
2016-11-15T16:55:16.346Z,25.71
2016-11-15T16:55:33.045Z,25.83
2016-11-15T16:55:49.789Z,26.23
2016-11-15T16:56:06.513Z,26.4
2016-11-15T16:56:23.233Z,26.57
2016-11-15T16:56:39.954Z,26.53
2016-11-15T16:56:56.700Z,26.39
2016-11-15T16:57:13.541Z,26.45
2016-11-15T16:57:30.272Z,26.35
2016-11-15T16:57:47.032Z,26.57
2016-11-15T16:58:03.788Z,26.6
2016-11-15T16:58:20.516Z,26.68
2016-11-15T16:58:37.250Z,26.79
2016-11-15T16:58:54.011Z,26.75
2016-11-15T16:59:11.268Z,26.76
2016-11-15T16:59:27.980Z,26.87
2016-11-15T16:59:44.741Z,27.14
2016-11-15T17:00:01.467Z,27.07
2016-11-15T17:00:18.219Z,26.77
2016-11-15T17:00:34.955Z,26.67
2016-11-15T17:00:51.674Z,26.64
2016-11-15T17:01:08.435Z,26.43
2016-11-15T17:01:25.193Z,26.42
2016-11-15T17:01:41.915Z,26.65
2016-11-15T17:01:58.636Z,26.52
2016-11-15T17:02:15.349Z,26.07
2016-11-15T17:02:32.077Z,25.92
2016-11-15T17:02:48.810Z,25.84
2016-11-15T17:03:06.065Z,26.02
2016-11-15T17:03:22.799Z,26.07
2016-11-15T17:03:39.514Z,25.9
2016-11-15T17:03:56.880Z,25.93
2016-11-15T17:04:13.600Z,25.89
2016-11-15T17:04:30.339Z,25.82
2016-11-15T17:04:47.090Z,25.7
2016-11-15T17:05:03.810Z,25.65
2016-11-15T17:05:20.516Z,25.42
2016-11-15T17:05:37.242Z,25.28
2016-11-15T17:05:53.998Z,25.45
2016-11-15T17:06:10.740Z,25.56
2016-11-15T17:06:27.473Z,25.42
2016-11-15T17:06:44.222Z,25.64
2016-11-15T17:07:00.986Z,25.83
2016-11-15T17:07:17.713Z,25.56
2016-11-15T17:07:34.420Z,25.25
2016-11-15T17:07:51.123Z,25.55
2016-11-15T17:08:07.822Z,25.55
2016-11-15T17:08:24.547Z,25.53
2016-11-15T17:08:41.285Z,25.35
2016-11-15T17:08:57.993Z,25.57
2016-11-15T17:09:14.723Z,25.55
2016-11-15T17:09:31.461Z,25.12
2016-11-15T17:09:48.183Z,25.35
2016-11-15T17:10:05.627Z,25.35
2016-11-15T17:10:22.373Z,25.2
2016-11-15T17:10:39.142Z,25.55
2016-11-15T17:10:55.870Z,25.84
2016-11-15T17:11:12.604Z,26.05
2016-11-15T17:11:29.327Z,26.18
2016-11-15T17:11:46.050Z,25.87
2016-11-15T17:12:02.807Z,26.12
2016-11-15T17:12:19.655Z,25.94
2016-11-15T17:12:36.363Z,25.99
2016-11-15T17:12:53.107Z,26.02
2016-11-15T17:13:09.822Z,26.2
2016-11-15T17:13:26.567Z,26.27
2016-11-15T17:13:43.308Z,26.34
2016-11-15T17:14:00.049Z,26.53
2016-11-15T17:14:17.311Z,26.57
2016-11-15T17:14:34.053Z,26.62
2016-11-15T17:14:50.810Z,26.58
2016-11-15T17:15:08.008Z,26.76
2016-11-15T17:15:24.743Z,26.8
2016-11-15T17:15:41.455Z,26.69
2016-11-15T17:15:58.185Z,26.07
2016-11-15T17:16:14.913Z,25.57
2016-11-15T17:16:31.639Z,25.77
2016-11-15T17:16:48.378Z,25.35
2016-11-15T17:17:05.085Z,25.09
2016-11-15T17:17:22.417Z,25.53
2016-11-15T17:17:39.147Z,25.09
2016-11-15T17:17:55.866Z,25.19
2016-11-15T17:18:12.585Z,24.93
2016-11-15T17:18:29.311Z,24.9
2016-11-15T17:18:46.551Z,25.12
2016-11-15T17:19:03.284Z,25.31
2016-11-15T17:19:20.008Z,24.71
2016-11-15T17:19:36.777Z,24.8
2016-11-15T17:19:53.510Z,25.05
2016-11-15T17:20:10.223Z,25.09
2016-11-15T17:20:26.963Z,25.05
2016-11-15T17:20:43.704Z,24.97
2016-11-15T17:21:00.432Z,24.71
2016-11-15T17:21:17.149Z,24.57
2016-11-15T17:21:33.858Z,24.83
2016-11-15T17:21:50.578Z,24.56
2016-11-15T17:22:07.298Z,24.79
2016-11-15T17:22:24.131Z,24.9
2016-11-15T17:22:41.433Z,24.71
2016-11-15T17:22:58.145Z,24.86
2016-11-15T17:23:14.872Z,24.79
2016-11-15T17:23:31.600Z,25.04
2016-11-15T17:23:48.323Z,24.9
2016-11-15T17:24:05.033Z,24.94
2016-11-15T17:24:21.739Z,24.97
2016-11-15T17:24:38.454Z,25.13
2016-11-15T17:24:55.189Z,25.04
2016-11-15T17:25:12.427Z,25.08
2016-11-15T17:25:29.148Z,25.31
2016-11-15T17:25:45.876Z,25.12
2016-11-15T17:26:02.613Z,25.3
2016-11-15T17:26:19.864Z,25.52
2016-11-15T17:26:36.600Z,25.53
2016-11-15T17:26:53.364Z,25.12
2016-11-15T17:27:10.115Z,24.82
2016-11-15T17:27:26.964Z,25.09
2016-11-15T17:27:43.709Z,25.22
2016-11-15T17:28:00.442Z,24.85
2016-11-15T17:28:17.168Z,25.28
2016-11-15T17:28:34.402Z,25.35
2016-11-15T17:28:51.135Z,25.2
2016-11-15T17:29:07.946Z,25.27
2016-11-15T17:29:24.762Z,25.31
2016-11-15T17:29:41.472Z,25.56
2016-11-15T17:29:58.190Z,25.59
2016-11-15T17:30:14.933Z,25.75
2016-11-15T17:30:31.729Z,25.84
2016-11-15T17:30:48.432Z,25.94
2016-11-15T17:31:05.163Z,26.16
2016-11-15T17:31:21.890Z,26.27
2016-11-15T17:31:38.616Z,26.35
2016-11-15T17:31:55.339Z,25.94
2016-11-15T17:32:12.049Z,25.9
2016-11-15T17:32:28.769Z,25.94
2016-11-15T17:32:46.012Z,26.05
2016-11-15T17:33:02.749Z,25.65
2016-11-15T17:33:19.482Z,25.87
2016-11-15T17:33:36.188Z,25.65
2016-11-15T17:33:52.904Z,26.04
2016-11-15T17:34:09.621Z,25.93